Time;durP1;ratioP1;P1;durP2;ratioP2;P2;SDS_P1;SDS_P2;PMS_P1;PMS_P2;Temp;Humidity;BMP_temperature;BMP_pressure;BME280_temperature;BME280_humidity;BME280_pressure;Samples;Min_cycle;Max_cycle;Signal;HPM_P1;HPM_P2
2022/09/27 00:00:17;;;;;;;6.13;2.25;;;;;;;;;;5026806;28;20053;-85
2022/09/27 00:02:46;;;;;;;5.35;2.35;;;;;;;;;;5044059;28;20051;-86
2022/09/27 00:05:15;;;;;;;3.53;2.15;;;;;;;;;;5043029;28;20411;-86
2022/09/27 00:07:48;;;;;;;3.78;2.10;;;;;;;;;;5045467;28;20041;-86
2022/09/27 00:10:16;;;;;;;3.85;2.35;;;;;;;;;;5042751;28;20068;-83
2022/09/27 00:13:07;;;;;;;3.78;2.33;;;;;;;;;;5044768;28;20081;-83
2022/09/27 00:15:35;;;;;;;4.10;2.22;;;;;;;;;;5024933;28;20060;-83
2022/09/27 00:18:13;;;;;;;3.65;2.45;;;;;;;;;;5026052;28;20119;-83
2022/09/27 00:20:41;;;;;;;3.60;2.28;;;;;;;;;;5043607;28;20130;-83
2022/09/27 00:23:09;;;;;;;5.97;2.10;;;;;;;;;;5042715;28;20171;-82
2022/09/27 00:25:37;;;;;;;3.83;1.98;;;;;;;;;;5026313;28;20451;-83
2022/09/27 00:28:06;;;;;;;7.45;2.28;;;;;;;;;;5044000;28;20103;-82
2022/09/27 00:30:41;;;;;;;4.35;2.50;;;;;;;;;;5044331;28;20048;-82
2022/09/27 00:33:34;;;;;;;4.63;2.42;;;;;;;;;;5027127;28;20075;-83
2022/09/27 00:36:29;;;;;;;4.30;2.03;;;;;;;;;;5043192;28;20043;-82
2022/09/27 00:38:58;;;;;;;7.68;2.45;;;;;;;;;;5024342;28;20103;-82
2022/09/27 00:41:27;;;;;;;4.13;2.35;;;;;;;;;;5042554;28;20040;-82
2022/09/27 00:44:26;;;;;;;4.35;2.28;;;;;;;;;;5042546;28;20044;-82
2022/09/27 00:47:13;;;;;;;4.28;2.35;;;;;;;;;;5042361;28;20052;-82
2022/09/27 00:50:09;;;;;;;3.95;2.00;;;;;;;;;;5043200;28;20041;-82
2022/09/27 00:53:24;;;;;;;3.50;2.10;;;;;;;;;;5044845;28;20041;-82
2022/09/27 00:55:56;;;;;;;4.70;2.00;;;;;;;;;;4962970;28;20081;-82
2022/09/27 00:58:36;;;;;;;6.40;2.03;;;;;;;;;;4982661;28;20418;-82
2022/09/27 01:01:09;;;;;;;3.30;1.80;;;;;;;;;;4982003;28;20129;-82
2022/09/27 01:03:59;;;;;;;6.40;2.17;;;;;;;;;;4967100;28;20065;-82
2022/09/27 01:06:51;;;;;;;3.78;2.35;;;;;;;;;;4982928;28;20042;-82
2022/09/27 01:09:24;;;;;;;4.82;2.13;;;;;;;;;;4981388;28;20470;-81
2022/09/27 01:12:24;;;;;;;3.95;2.00;;;;;;;;;;4964075;28;20053;-82
2022/09/27 01:14:58;;;;;;;3.90;2.08;;;;;;;;;;4966518;28;20129;-82
2022/09/27 01:18:00;;;;;;;4.78;1.90;;;;;;;;;;4964686;28;20453;-82
2022/09/27 01:21:02;;;;;;;3.97;2.20;;;;;;;;;;4965637;28;20054;-82
2022/09/27 01:23:35;;;;;;;3.42;1.90;;;;;;;;;;4879988;29;20063;-81
2022/09/27 01:26:30;;;;;;;3.17;2.00;;;;;;;;;;4897733;29;20036;-82
2022/09/27 01:28:57;;;;;;;3.75;2.30;;;;;;;;;;4869112;29;20140;-82
2022/09/27 01:31:58;;;;;;;6.45;2.00;;;;;;;;;;4896292;29;20471;-82
2022/09/27 01:34:50;;;;;;;3.17;1.92;;;;;;;;;;4926603;29;20048;-82
2022/09/27 01:37:23;;;;;;;3.88;2.05;;;;;;;;;;4927534;29;20064;-82
2022/09/27 01:40:16;;;;;;;3.65;2.20;;;;;;;;;;4904510;29;20063;-82
2022/09/27 01:43:16;;;;;;;3.83;1.90;;;;;;;;;;4926787;29;20039;-82
2022/09/27 01:46:16;;;;;;;3.53;2.00;;;;;;;;;;4926421;29;20127;-82
2022/09/27 01:49:21;;;;;;;4.35;2.28;;;;;;;;;;4907999;29;20059;-82
2022/09/27 01:51:59;;;;;;;3.53;2.03;;;;;;;;;;4920037;29;20056;-82
2022/09/27 01:54:51;;;;;;;3.83;1.90;;;;;;;;;;4911366;29;20312;-82
2022/09/27 01:57:54;;;;;;;3.80;2.33;;;;;;;;;;4926948;29;20079;-82
2022/09/27 02:00:24;;;;;;;3.17;1.92;;;;;;;;;;5005872;28;20064;-82
2022/09/27 02:02:58;;;;;;;3.90;2.28;;;;;;;;;;5045362;28;20446;-82
2022/09/27 02:06:01;;;;;;;4.00;2.50;;;;;;;;;;5048156;28;20033;-82
2022/09/27 02:08:58;;;;;;;3.97;2.28;;;;;;;;;;5025833;28;21454;-82
2022/09/27 02:11:49;;;;;;;3.65;2.13;;;;;;;;;;5046132;28;20055;-82
2022/09/27 02:14:34;;;;;;;3.38;2.10;;;;;;;;;;5035826;28;20106;-82
2022/09/27 02:17:40;;;;;;;3.22;2.00;;;;;;;;;;5046148;28;20508;-82
2022/09/27 02:20:43;;;;;;;6.53;2.17;;;;;;;;;;5028330;28;20049;-82
2022/09/27 02:23:39;;;;;;;4.13;2.20;;;;;;;;;;4946049;28;20074;-82
2022/09/27 02:26:44;;;;;;;5.90;2.20;;;;;;;;;;4946470;28;20078;-82
2022/09/27 02:29:18;;;;;;;3.40;2.03;;;;;;;;;;4938324;28;20050;-82
2022/09/27 02:31:54;;;;;;;3.50;2.10;;;;;;;;;;4939963;28;20051;-82
2022/09/27 02:34:25;;;;;;;4.22;2.42;;;;;;;;;;4943913;28;20051;-82
2022/09/27 02:36:54;;;;;;;3.83;2.20;;;;;;;;;;4939867;29;20062;-82
2022/09/27 02:39:22;;;;;;;5.55;1.98;;;;;;;;;;4946282;28;20117;-82
2022/09/27 02:42:05;;;;;;;4.05;2.45;;;;;;;;;;4927821;29;20141;-82
2022/09/27 02:44:56;;;;;;;5.20;2.53;;;;;;;;;;4929882;29;20030;-82
2022/09/27 02:47:48;;;;;;;4.32;2.30;;;;;;;;;;4939742;28;20134;-82
2022/09/27 02:50:40;;;;;;;3.97;2.08;;;;;;;;;;4944842;28;20043;-82
2022/09/27 02:53:42;;;;;;;3.20;1.85;;;;;;;;;;4946187;28;20435;-82
2022/09/27 02:56:45;;;;;;;3.90;2.20;;;;;;;;;;4944784;28;20514;-82
2022/09/27 02:59:48;;;;;;;3.58;2.17;;;;;;;;;;5027372;28;20079;-82
2022/09/27 03:02:40;;;;;;;3.97;2.50;;;;;;;;;;5028143;28;20497;-82
2022/09/27 03:05:34;;;;;;;4.18;2.42;;;;;;;;;;5045849;28;20048;-82
2022/09/27 03:08:02;;;;;;;3.95;2.50;;;;;;;;;;5027424;28;20123;-82
2022/09/27 03:10:30;;;;;;;4.00;2.55;;;;;;;;;;5028147;28;20044;-82
2022/09/27 03:12:57;;;;;;;4.82;2.50;;;;;;;;;;5044956;28;20051;-82
2022/09/27 03:15:50;;;;;;;4.45;2.60;;;;;;;;;;5027016;28;20025;-82
2022/09/27 03:18:47;;;;;;;6.07;2.53;;;;;;;;;;5030370;28;20053;-82
2022/09/27 03:22:05;;;;;;;5.13;2.72;;;;;;;;;;5045094;28;20047;-82
2022/09/27 03:24:31;;;;;;;4.90;2.40;;;;;;;;;;5043448;28;20064;-82
2022/09/27 03:26:59;;;;;;;4.45;2.63;;;;;;;;;;5025591;28;20045;-82
2022/09/27 03:29:32;;;;;;;4.13;2.45;;;;;;;;;;5045324;28;20128;-82
2022/09/27 03:32:07;;;;;;;4.65;2.38;;;;;;;;;;5027369;28;20078;-81
2022/09/27 03:34:48;;;;;;;4.53;2.60;;;;;;;;;;5044086;28;20065;-82
2022/09/27 03:37:16;;;;;;;7.47;3.00;;;;;;;;;;5025451;28;20044;-82
2022/09/27 03:39:44;;;;;;;5.25;2.70;;;;;;;;;;5044425;28;20056;-82
2022/09/27 03:42:11;;;;;;;4.30;2.60;;;;;;;;;;5033790;28;20110;-81
2022/09/27 03:44:46;;;;;;;5.38;3.10;;;;;;;;;;5026888;28;20595;-82
2022/09/27 03:47:41;;;;;;;4.03;2.30;;;;;;;;;;5029644;28;20041;-82
2022/09/27 03:50:31;;;;;;;6.57;4.10;;;;;;;;;;5027010;28;20059;-82
2022/09/27 03:53:04;;;;;;;4.43;2.90;;;;;;;;;;5044439;28;20045;-82
2022/09/27 03:55:36;;;;;;;5.93;2.67;;;;;;;;;;5025817;28;20061;-82
2022/09/27 03:58:04;;;;;;;4.70;2.45;;;;;;;;;;5042205;28;20048;-82
2022/09/27 04:00:38;;;;;;;5.72;2.80;;;;;;;;;;5041960;28;20037;-82
2022/09/27 04:03:06;;;;;;;4.63;2.88;;;;;;;;;;5043591;28;20516;-82
2022/09/27 04:06:07;;;;;;;4.22;2.70;;;;;;;;;;5043761;28;20146;-83
2022/09/27 04:08:42;;;;;;;6.57;2.83;;;;;;;;;;5009978;28;20035;-83
2022/09/27 04:11:14;;;;;;;6.43;3.35;;;;;;;;;;5042574;28;20041;-83
2022/09/27 04:13:44;;;;;;;4.63;3.03;;;;;;;;;;5040027;28;20033;-83
2022/09/27 04:16:12;;;;;;;5.10;2.92;;;;;;;;;;5008604;28;20091;-82
2022/09/27 04:19:07;;;;;;;5.07;3.15;;;;;;;;;;5044573;28;20033;-83
2022/09/27 04:21:36;;;;;;;5.13;3.08;;;;;;;;;;5025828;28;20037;-82
2022/09/27 04:24:10;;;;;;;4.75;3.05;;;;;;;;;;5027155;28;20144;-82
2022/09/27 04:26:42;;;;;;;7.90;3.55;;;;;;;;;;5026454;28;20037;-83
2022/09/27 04:29:15;;;;;;;6.05;3.55;;;;;;;;;;5040750;28;21832;-82
2022/09/27 04:31:51;;;;;;;5.30;3.03;;;;;;;;;;5042736;28;20539;-82
2022/09/27 04:37:38;;;;;;;8.50;3.50;;;;;;;;;;4946537;28;20054;-83
2022/09/27 04:40:06;;;;;;;8.73;3.95;;;;;;;;;;4963163;28;20479;-83
2022/09/27 04:42:58;;;;;;;5.25;3.53;;;;;;;;;;4930104;28;20169;-82
2022/09/27 04:45:30;;;;;;;6.55;3.58;;;;;;;;;;4945709;28;20553;-83
2022/09/27 04:47:58;;;;;;;5.15;3.35;;;;;;;;;;4961368;28;20043;-83
2022/09/27 04:50:25;;;;;;;6.10;3.65;;;;;;;;;;4947058;28;20129;-83
2022/09/27 04:53:02;;;;;;;5.85;4.00;;;;;;;;;;4944950;28;20527;-83
2022/09/27 04:55:30;;;;;;;6.75;4.15;;;;;;;;;;4960870;28;20046;-83
2022/09/27 04:58:00;;;;;;;7.18;4.65;;;;;;;;;;4945086;28;20066;-83
2022/09/27 05:00:28;;;;;;;8.27;4.10;;;;;;;;;;4964707;28;20097;-83
2022/09/27 05:03:42;;;;;;;5.93;3.95;;;;;;;;;;4957958;28;20050;-83
2022/09/27 05:06:11;;;;;;;6.75;3.85;;;;;;;;;;4967706;28;20046;-83
2022/09/27 05:09:05;;;;;;;7.03;4.63;;;;;;;;;;4951445;28;20543;-83
2022/09/27 05:11:42;;;;;;;6.10;4.18;;;;;;;;;;5028598;28;20118;-83
2022/09/27 05:14:15;;;;;;;6.72;4.00;;;;;;;;;;5048473;28;20119;-83
2022/09/27 05:16:54;;;;;;;7.50;4.65;;;;;;;;;;5043346;28;20570;-83
2022/09/27 05:19:27;;;;;;;6.85;4.43;;;;;;;;;;5049296;28;20036;-82
2022/09/27 05:22:39;;;;;;;7.53;4.30;;;;;;;;;;5048548;28;20040;-83
2022/09/27 05:25:08;;;;;;;6.80;4.45;;;;;;;;;;5046879;28;20145;-83
2022/09/27 05:27:36;;;;;;;7.95;4.57;;;;;;;;;;5030140;28;20044;-83
2022/09/27 05:30:06;;;;;;;6.60;4.35;;;;;;;;;;5022635;28;20049;-83
2022/09/27 05:32:49;;;;;;;7.72;4.78;;;;;;;;;;5031188;28;20047;-83
2022/09/27 05:35:55;;;;;;;7.18;4.63;;;;;;;;;;5048135;28;20037;-83
2022/09/27 05:38:28;;;;;;;8.57;4.82;;;;;;;;;;5047311;28;20052;-83
2022/09/27 05:41:00;;;;;;;7.63;4.55;;;;;;;;;;5012361;28;20051;-84
2022/09/27 05:43:33;;;;;;;8.10;4.95;;;;;;;;;;5024632;28;20076;-85
2022/09/27 05:46:02;;;;;;;14.43;6.82;;;;;;;;;;5029258;28;20495;-84
2022/09/27 05:48:55;;;;;;;7.43;4.53;;;;;;;;;;5047060;28;20601;-84
2022/09/27 05:52:11;;;;;;;7.32;4.60;;;;;;;;;;5046514;28;20600;-83
2022/09/27 05:54:44;;;;;;;7.13;4.65;;;;;;;;;;5026213;28;20052;-82
2022/09/27 05:57:13;;;;;;;7.32;4.82;;;;;;;;;;5030206;28;20029;-84
2022/09/27 05:59:44;;;;;;;7.47;4.50;;;;;;;;;;5044966;28;21065;-84
2022/09/27 06:02:34;;;;;;;9.18;4.25;;;;;;;;;;5043056;28;20084;-84
2022/09/27 06:05:28;;;;;;;8.05;4.47;;;;;;;;;;5047371;28;20041;-83
2022/09/27 06:08:35;;;;;;;10.32;5.10;;;;;;;;;;5035388;28;20182;-83
2022/09/27 06:11:12;;;;;;;7.55;4.57;;;;;;;;;;5044273;28;20065;-83
2022/09/27 06:13:40;;;;;;;6.95;4.60;;;;;;;;;;5021681;28;20041;-82
2022/09/27 06:16:12;;;;;;;15.65;5.25;;;;;;;;;;5029391;28;20055;-83
2022/09/27 06:18:41;;;;;;;9.93;4.88;;;;;;;;;;5012269;28;21028;-83
2022/09/27 06:21:16;;;;;;;9.00;5.07;;;;;;;;;;5020000;28;20041;-83
2022/09/27 06:23:54;;;;;;;9.82;4.72;;;;;;;;;;5014124;28;20135;-83
2022/09/27 06:26:30;;;;;;;11.02;4.90;;;;;;;;;;5029409;28;20056;-83
2022/09/27 06:29:08;;;;;;;9.68;5.55;;;;;;;;;;5027618;28;20040;-83
2022/09/27 06:31:43;;;;;;;10.60;5.20;;;;;;;;;;5016920;28;20060;-83
2022/09/27 06:34:19;;;;;;;11.02;5.55;;;;;;;;;;5025098;28;20598;-83
2022/09/27 06:36:51;;;;;;;10.02;4.95;;;;;;;;;;5045261;28;20120;-83
2022/09/27 06:39:19;;;;;;;10.90;5.70;;;;;;;;;;5041603;28;20036;-83
2022/09/27 06:42:16;;;;;;;11.18;5.75;;;;;;;;;;5026699;28;20064;-84
2022/09/27 06:45:05;;;;;;;13.00;5.18;;;;;;;;;;5044514;28;20493;-84
2022/09/27 06:48:03;;;;;;;16.15;5.80;;;;;;;;;;5045471;28;20037;-84
2022/09/27 06:50:48;;;;;;;9.52;4.93;;;;;;;;;;5023162;28;20045;-84
2022/09/27 06:53:16;;;;;;;9.65;4.85;;;;;;;;;;5027349;28;20090;-84
2022/09/27 06:55:44;;;;;;;9.43;4.75;;;;;;;;;;5027269;28;20109;-84
2022/09/27 07:01:29;;;;;;;7.75;4.22;;;;;;;;;;5046628;28;20052;-83
2022/09/27 07:04:15;;;;;;;8.65;3.97;;;;;;;;;;5046576;28;20041;-84
2022/09/27 07:06:52;;;;;;;9.50;3.45;;;;;;;;;;5028233;28;20068;-84
2022/09/27 07:09:46;;;;;;;6.70;3.10;;;;;;;;;;5044479;28;20082;-84
2022/09/27 07:12:38;;;;;;;5.45;3.13;;;;;;;;;;5027959;28;20506;-84
2022/09/27 07:15:06;;;;;;;12.07;4.43;;;;;;;;;;5019517;28;20053;-84
2022/09/27 07:17:36;;;;;;;8.60;3.83;;;;;;;;;;5027256;28;20042;-84
2022/09/27 07:20:04;;;;;;;6.75;3.70;;;;;;;;;;5012216;28;20095;-84
2022/09/27 07:22:31;;;;;;;8.85;3.80;;;;;;;;;;5026283;28;20132;-84
2022/09/27 07:25:02;;;;;;;5.25;3.15;;;;;;;;;;5028241;28;20128;-83
2022/09/27 07:27:31;;;;;;;6.03;3.42;;;;;;;;;;5028087;28;20549;-84
2022/09/27 07:30:23;;;;;;;4.63;2.33;;;;;;;;;;5045655;28;20128;-83
2022/09/27 07:33:00;;;;;;;4.88;1.42;;;;;;;;;;5021364;28;20045;-84
2022/09/27 07:35:29;;;;;;;2.55;1.08;;;;;;;;;;5027043;28;20049;-84
2022/09/27 07:37:57;;;;;;;8.40;1.50;;;;;;;;;;5043825;28;20055;-83
2022/09/27 07:40:27;;;;;;;5.22;1.10;;;;;;;;;;5044073;28;20127;-83
2022/09/27 07:43:00;;;;;;;4.45;1.02;;;;;;;;;;5004815;28;20127;-83
2022/09/27 07:45:28;;;;;;;5.35;1.25;;;;;;;;;;5027172;28;20067;-83
2022/09/27 07:48:13;;;;;;;4.07;1.05;;;;;;;;;;5044304;28;20449;-83
2022/09/27 07:50:59;;;;;;;2.25;1.10;;;;;;;;;;5021341;28;20036;-83
2022/09/27 07:53:50;;;;;;;3.28;1.27;;;;;;;;;;5012936;28;20101;-84
2022/09/27 07:56:37;;;;;;;3.05;1.30;;;;;;;;;;5043283;28;20501;-84
2022/09/27 07:59:07;;;;;;;2.42;1.13;;;;;;;;;;5026637;28;20041;-84
2022/09/27 08:01:59;;;;;;;2.85;1.25;;;;;;;;;;5029997;28;20048;-84
2022/09/27 08:04:27;;;;;;;3.55;1.30;;;;;;;;;;5026978;28;20122;-84
2022/09/27 08:06:58;;;;;;;4.75;1.27;;;;;;;;;;5042951;28;20488;-84
2022/09/27 08:09:52;;;;;;;3.05;1.25;;;;;;;;;;5024874;28;20041;-84
2022/09/27 08:12:20;;;;;;;3.17;1.10;;;;;;;;;;5041073;28;20599;-84
2022/09/27 08:14:48;;;;;;;4.13;1.20;;;;;;;;;;5003974;28;20045;-84
2022/09/27 08:17:41;;;;;;;1.75;0.90;;;;;;;;;;5026780;28;20040;-84
2022/09/27 08:20:29;;;;;;;4.22;1.02;;;;;;;;;;5025669;28;20411;-84
2022/09/27 08:23:18;;;;;;;4.45;1.48;;;;;;;;;;5018995;28;20128;-84
2022/09/27 08:29:04;;;;;;;5.00;1.50;;;;;;;;;;5042785;28;20051;-84
2022/09/27 08:31:55;;;;;;;4.53;1.50;;;;;;;;;;5043019;28;20041;-84
2022/09/27 08:34:28;;;;;;;2.40;1.20;;;;;;;;;;5043315;28;20041;-83
2022/09/27 08:36:59;;;;;;;2.67;1.10;;;;;;;;;;5043939;28;20040;-84
2022/09/27 08:39:27;;;;;;;2.92;1.30;;;;;;;;;;5026671;28;20519;-84
2022/09/27 08:42:10;;;;;;;4.47;1.27;;;;;;;;;;5044604;28;20045;-84
2022/09/27 08:45:00;;;;;;;3.15;1.20;;;;;;;;;;5025012;28;20040;-84
2022/09/27 08:47:59;;;;;;;4.43;1.50;;;;;;;;;;5043088;28;20485;-84
2022/09/27 08:50:33;;;;;;;3.38;0.85;;;;;;;;;;5042524;28;20049;-84
2022/09/27 08:53:13;;;;;;;2.72;1.05;;;;;;;;;;5025662;28;20148;-83
2022/09/27 08:56:10;;;;;;;2.80;0.80;;;;;;;;;;5033520;28;20036;-84
2022/09/27 08:59:01;;;;;;;2.67;0.98;;;;;;;;;;5018141;28;20033;-84
2022/09/27 09:01:34;;;;;;;3.50;0.90;;;;;;;;;;5025881;28;20041;-84
2022/09/27 09:04:50;;;;;;;3.55;0.90;;;;;;;;;;5044178;28;20044;-83
2022/09/27 09:07:32;;;;;;;2.03;0.90;;;;;;;;;;5010218;28;20866;-84
2022/09/27 09:12:45;;;;;;;3.60;0.88;;;;;;;;;;5042605;28;20029;-84
2022/09/27 09:13:42;;;;;;;1.92;0.60;;;;;;;;;;5038872;28;21027;-83
2022/09/27 09:16:21;;;;;;;3.13;0.80;;;;;;;;;;5002277;28;20128;-83
2022/09/27 09:19:42;;;;;;;2.05;1.05;;;;;;;;;;5042081;28;20049;-84
2022/09/27 09:22:48;;;;;;;;;;;;;;;;;;4999868;28;20056;-84
2022/09/27 09:25:30;;;;;;;2.05;1.00;;;;;;;;;;4984230;28;19988;-84
2022/09/27 09:28:08;;;;;;;3.05;0.88;;;;;;;;;;5001026;28;20143;-85
2022/09/27 09:31:03;;;;;;;2.55;0.98;;;;;;;;;;4999015;28;20057;-83
2022/09/27 09:34:15;;;;;;;4.60;1.00;;;;;;;;;;4983803;28;20093;-83
2022/09/27 09:36:55;;;;;;;2.15;0.82;;;;;;;;;;4930395;29;20071;-84
2022/09/27 09:39:35;;;;;;;5.13;1.23;;;;;;;;;;4923543;29;20150;-84
2022/09/27 09:42:18;;;;;;;6.18;1.42;;;;;;;;;;4907013;29;20047;-84
2022/09/27 09:45:02;;;;;;;3.88;1.35;;;;;;;;;;4931523;29;20055;-84
2022/09/27 09:47:36;;;;;;;3.42;1.30;;;;;;;;;;4937158;28;20061;-83
2022/09/27 09:50:41;;;;;;;3.85;1.30;;;;;;;;;;4955525;28;20046;-84
2022/09/27 09:53:16;;;;;;;3.45;1.80;;;;;;;;;;4918205;29;20758;-83
2022/09/27 09:55:51;;;;;;;3.42;1.25;;;;;;;;;;4932738;29;20565;-83
2022/09/27 09:58:26;;;;;;;3.47;1.30;;;;;;;;;;4919658;29;20059;-83
2022/09/27 10:01:12;;;;;;;3.17;1.35;;;;;;;;;;4932940;29;20069;-84
2022/09/27 10:03:39;;;;;;;5.13;1.42;;;;;;;;;;4931364;29;20058;-84
2022/09/27 10:06:10;;;;;;;6.43;2.30;;;;;;;;;;4932868;29;20169;-83
2022/09/27 10:08:40;;;;;;;3.40;1.20;;;;;;;;;;4903787;29;20503;-84
2022/09/27 10:11:40;;;;;;;2.80;1.40;;;;;;;;;;4918064;29;20539;-84
2022/09/27 10:14:19;;;;;;;2.55;1.20;;;;;;;;;;4955783;28;20081;-83
2022/09/27 10:16:54;;;;;;;3.08;1.10;;;;;;;;;;4967696;28;20062;-84
2022/09/27 10:19:28;;;;;;;4.10;1.38;;;;;;;;;;4985543;28;20054;-84
2022/09/27 10:22:09;;;;;;;2.08;1.17;;;;;;;;;;4967699;28;20057;-84
2022/09/27 10:25:06;;;;;;;2.95;1.27;;;;;;;;;;4983531;28;20054;-84
2022/09/27 10:27:47;;;;;;;2.53;1.50;;;;;;;;;;4968267;28;20396;-84
2022/09/27 10:30:40;;;;;;;4.43;1.30;;;;;;;;;;4988312;28;20460;-83
2022/09/27 10:33:22;;;;;;;1.73;1.10;;;;;;;;;;5044077;28;20048;-83
2022/09/27 10:35:54;;;;;;;2.90;1.00;;;;;;;;;;5027576;28;20065;-84
2022/09/27 10:38:36;;;;;;;2.67;1.38;;;;;;;;;;5040622;28;20160;-84
2022/09/27 10:41:21;;;;;;;3.15;1.30;;;;;;;;;;5027068;28;20036;-84
2022/09/27 10:43:50;;;;;;;5.45;1.40;;;;;;;;;;4995937;28;20421;-84
2022/09/27 10:46:32;;;;;;;2.72;1.23;;;;;;;;;;5018405;28;20049;-84
2022/09/27 10:49:32;;;;;;;6.78;1.30;;;;;;;;;;5044745;28;20056;-84
2022/09/27 10:52:05;;;;;;;2.13;1.13;;;;;;;;;;5043422;28;20041;-83
2022/09/27 10:54:36;;;;;;;3.40;1.10;;;;;;;;;;5020442;28;20485;-83
2022/09/27 10:57:30;;;;;;;3.45;1.10;;;;;;;;;;5042104;28;20052;-84
2022/09/27 11:00:36;;;;;;;4.32;1.30;;;;;;;;;;5029470;28;20041;-83
2022/09/27 11:03:13;;;;;;;2.20;1.17;;;;;;;;;;5011888;28;20036;-83
2022/09/27 11:05:42;;;;;;;5.38;1.30;;;;;;;;;;5044544;28;20044;-83
2022/09/27 11:08:18;;;;;;;1.70;1.00;;;;;;;;;;5045015;28;20037;-84
2022/09/27 11:11:03;;;;;;;1.67;1.00;;;;;;;;;;5011436;28;20534;-84
2022/09/27 11:14:17;;;;;;;2.67;1.20;;;;;;;;;;5020986;28;20055;-83
2022/09/27 11:17:05;;;;;;;2.58;1.20;;;;;;;;;;5026697;28;20135;-84
2022/09/27 11:19:58;;;;;;;1.75;1.00;;;;;;;;;;5044877;28;20037;-84
2022/09/27 11:22:44;;;;;;;2.50;1.10;;;;;;;;;;5027513;28;20048;-83
2022/09/27 11:25:50;;;;;;;2.83;1.30;;;;;;;;;;5043782;28;20037;-84
2022/09/27 11:28:30;;;;;;;2.45;0.90;;;;;;;;;;5025951;28;20049;-84
2022/09/27 11:31:34;;;;;;;3.17;1.17;;;;;;;;;;5026818;28;20063;-84
2022/09/27 11:34:42;;;;;;;2.60;1.20;;;;;;;;;;5027153;28;20464;-83
2022/09/27 11:38:00;;;;;;;1.52;0.90;;;;;;;;;;5044414;28;20069;-84
2022/09/27 11:40:59;;;;;;;4.07;1.20;;;;;;;;;;5034671;28;20531;-85
2022/09/27 11:44:13;;;;;;;2.22;1.13;;;;;;;;;;5019649;28;20037;-84
2022/09/27 11:47:33;;;;;;;2.40;1.25;;;;;;;;;;5041914;28;20434;-85
2022/09/27 11:50:14;;;;;;;4.72;1.05;;;;;;;;;;5041837;28;20068;-84
2022/09/27 11:53:06;;;;;;;2.97;1.00;;;;;;;;;;5023310;28;20044;-85
2022/09/27 11:55:46;;;;;;;3.83;0.88;;;;;;;;;;5042371;28;20045;-84
2022/09/27 11:58:24;;;;;;;1.77;0.95;;;;;;;;;;5018356;28;20570;-85
2022/09/27 12:01:21;;;;;;;2.33;1.00;;;;;;;;;;5041743;28;20417;-84
2022/09/27 12:04:18;;;;;;;1.58;1.00;;;;;;;;;;5025928;28;20045;-84
2022/09/27 12:07:16;;;;;;;2.90;1.00;;;;;;;;;;5042736;28;20566;-85
2022/09/27 12:09:49;;;;;;;2.10;1.10;;;;;;;;;;4954523;28;20523;-85
2022/09/27 12:12:22;;;;;;;2.38;1.05;;;;;;;;;;4939884;28;20522;-84
2022/09/27 12:14:58;;;;;;;2.33;1.20;;;;;;;;;;4953803;28;20158;-85
2022/09/27 12:17:41;;;;;;;4.18;1.30;;;;;;;;;;4944661;28;20066;-85
2022/09/27 12:20:35;;;;;;;2.95;1.20;;;;;;;;;;4961498;28;20094;-85
2022/09/27 12:23:10;;;;;;;3.13;1.38;;;;;;;;;;4962769;28;20047;-84
2022/09/27 12:26:42;;;;;;;2.10;1.23;;;;;;;;;;4868269;29;20105;-84
2022/09/27 12:32:47;;;;;;;4.50;1.25;;;;;;;;;;4909308;29;20103;-84
2022/09/27 12:35:21;;;;;;;3.10;1.50;;;;;;;;;;4896459;29;20106;-84
2022/09/27 12:38:01;;;;;;;3.55;1.25;;;;;;;;;;4893537;29;20044;-83
2022/09/27 12:40:40;;;;;;;3.22;1.20;;;;;;;;;;4876106;29;20064;-84
2022/09/27 12:43:23;;;;;;;2.00;1.20;;;;;;;;;;4860355;29;20143;-84
2022/09/27 12:46:14;;;;;;;1.55;1.05;;;;;;;;;;4901679;28;20048;-83
2022/09/27 12:49:05;;;;;;;2.58;1.20;;;;;;;;;;4946412;28;20058;-83
2022/09/27 12:51:42;;;;;;;1.58;1.00;;;;;;;;;;4960846;28;20082;-84
2022/09/27 12:54:27;;;;;;;2.78;1.00;;;;;;;;;;4945026;28;20055;-84
2022/09/27 12:57:03;;;;;;;1.92;0.82;;;;;;;;;;4945800;28;20423;-84
2022/09/27 13:00:21;;;;;;;2.30;1.20;;;;;;;;;;4945928;28;20627;-84
2022/09/27 13:02:50;;;;;;;4.18;1.10;;;;;;;;;;4909642;29;20072;-85
2022/09/27 13:05:56;;;;;;;4.35;1.10;;;;;;;;;;4926215;29;20068;-84
2022/09/27 13:08:47;;;;;;;2.17;1.05;;;;;;;;;;4949352;28;20359;-84
2022/09/27 13:11:41;;;;;;;2.45;1.20;;;;;;;;;;4947245;28;20051;-83
2022/09/27 13:14:19;;;;;;;2.85;1.35;;;;;;;;;;4946868;28;20088;-83
2022/09/27 13:16:52;;;;;;;1.75;0.93;;;;;;;;;;4946793;28;20135;-84
2022/09/27 13:19:44;;;;;;;2.17;0.80;;;;;;;;;;4947768;28;20184;-84
2022/09/27 13:22:25;;;;;;;2.42;1.30;;;;;;;;;;4952767;28;20125;-82
2022/09/27 13:25:56;;;;;;;2.40;0.80;;;;;;;;;;4970482;28;20623;-83
2022/09/27 13:28:37;;;;;;;3.55;0.90;;;;;;;;;;4946907;28;20090;-82
2022/09/27 13:31:13;;;;;;;0.77;0.52;;;;;;;;;;4949165;28;20066;-82
2022/09/27 13:33:51;;;;;;;3.00;0.82;;;;;;;;;;4949961;28;20199;-82
2022/09/27 13:36:46;;;;;;;4.40;0.80;;;;;;;;;;4954012;28;20058;-83
2022/09/27 13:39:38;;;;;;;0.77;0.50;;;;;;;;;;5028815;28;20049;-82
2022/09/27 13:42:38;;;;;;;2.20;0.80;;;;;;;;;;5017320;28;20051;-82
2022/09/27 13:45:31;;;;;;;1.23;0.70;;;;;;;;;;5033676;28;20092;-83
2022/09/27 13:48:44;;;;;;;1.60;0.70;;;;;;;;;;5048647;28;20033;-83
2022/09/27 13:51:18;;;;;;;2.13;1.00;;;;;;;;;;5049193;28;20033;-82
2022/09/27 13:53:59;;;;;;;1.55;0.70;;;;;;;;;;5047308;28;20059;-83
2022/09/27 13:56:46;;;;;;;2.50;0.80;;;;;;;;;;5046344;28;20116;-82
2022/09/27 13:59:42;;;;;;;1.77;0.80;;;;;;;;;;5028300;28;20052;-82
2022/09/27 14:03:10;;;;;;;1.73;0.60;;;;;;;;;;5044096;28;20044;-82
2022/09/27 14:06:23;;;;;;;2.40;1.10;;;;;;;;;;5046867;28;20056;-84
2022/09/27 14:09:01;;;;;;;3.35;0.90;;;;;;;;;;5029304;28;20033;-84
2022/09/27 14:11:39;;;;;;;1.55;0.60;;;;;;;;;;5041636;28;20127;-85
2022/09/27 14:14:32;;;;;;;1.38;0.80;;;;;;;;;;5046097;28;20040;-84
2022/09/27 14:17:01;;;;;;;1.63;0.80;;;;;;;;;;5026099;28;20053;-84
2022/09/27 14:19:39;;;;;;;2.45;1.00;;;;;;;;;;5026382;28;20044;-84
2022/09/27 14:22:19;;;;;;;2.22;0.68;;;;;;;;;;5026436;28;20040;-84
2022/09/27 14:24:53;;;;;;;5.22;0.80;;;;;;;;;;5044245;28;20040;-84
2022/09/27 14:27:36;;;;;;;3.67;1.58;;;;;;;;;;5020817;28;20045;-85
2022/09/27 14:30:22;;;;;;;0.70;0.52;;;;;;;;;;5026429;28;20044;-84
2022/09/27 14:33:00;;;;;;;2.90;0.85;;;;;;;;;;5012415;28;20053;-83
2022/09/27 14:39:12;;;;;;;5.75;1.13;;;;;;;;;;5027899;28;20970;-83
2022/09/27 14:42:19;;;;;;;2.70;0.80;;;;;;;;;;5044471;28;20041;-84
2022/09/27 14:47:49;;;;;;;1.40;0.70;;;;;;;;;;5043558;28;20044;-83
2022/09/27 14:50:28;;;;;;;1.52;0.60;;;;;;;;;;5045296;28;20041;-83
2022/09/27 14:52:59;;;;;;;2.58;0.63;;;;;;;;;;5046946;28;20041;-83
2022/09/27 14:55:32;;;;;;;2.83;0.85;;;;;;;;;;5045513;28;20099;-83
2022/09/27 14:58:25;;;;;;;1.27;0.68;;;;;;;;;;5026924;28;20032;-83
2022/09/27 15:01:50;;;;;;;1.38;0.70;;;;;;;;;;5045276;28;20033;-83
2022/09/27 15:04:22;;;;;;;4.05;1.40;;;;;;;;;;5029231;28;20064;-84
2022/09/27 15:06:50;;;;;;;1.70;0.85;;;;;;;;;;5028950;28;20435;-84
2022/09/27 15:09:19;;;;;;;3.78;1.00;;;;;;;;;;5010661;28;20039;-84
2022/09/27 15:12:21;;;;;;;3.65;1.00;;;;;;;;;;5043983;28;20246;-84
2022/09/27 15:14:50;;;;;;;2.40;0.93;;;;;;;;;;5043079;28;20041;-84
2022/09/27 15:20:18;;;;;;;2.60;0.90;;;;;;;;;;5045092;28;20047;-84
2022/09/27 15:22:47;;;;;;;3.38;1.10;;;;;;;;;;5045712;28;20522;-83
2022/09/27 15:25:35;;;;;;;3.25;1.30;;;;;;;;;;5042816;28;20041;-83
2022/09/27 15:28:17;;;;;;;3.17;1.20;;;;;;;;;;5042731;28;20396;-83
2022/09/27 15:30:56;;;;;;;4.22;1.40;;;;;;;;;;5044913;28;20098;-83
2022/09/27 15:33:31;;;;;;;5.03;1.20;;;;;;;;;;5042822;28;20493;-84
2022/09/27 15:36:03;;;;;;;5.70;1.80;;;;;;;;;;5045331;28;20053;-84
2022/09/27 15:38:31;;;;;;;5.63;1.70;;;;;;;;;;5044461;28;20092;-84
2022/09/27 15:41:08;;;;;;;4.95;1.42;;;;;;;;;;5043177;28;20039;-84
2022/09/27 15:44:34;;;;;;;3.38;1.15;;;;;;;;;;5040882;28;20488;-84
2022/09/27 15:47:41;;;;;;;4.50;1.15;;;;;;;;;;5042761;28;20037;-83
2022/09/27 15:50:15;;;;;;;3.25;1.10;;;;;;;;;;5042036;28;20033;-84
2022/09/27 15:52:51;;;;;;;2.13;0.98;;;;;;;;;;5043499;28;20038;-84
2022/09/27 15:55:24;;;;;;;3.22;1.15;;;;;;;;;;5027049;28;20045;-83
2022/09/27 15:58:20;;;;;;;7.60;1.52;;;;;;;;;;5042748;28;20069;-83
2022/09/27 16:00:52;;;;;;;3.97;1.30;;;;;;;;;;5041193;28;20414;-84
2022/09/27 16:03:20;;;;;;;4.72;1.30;;;;;;;;;;5025726;28;20074;-85
2022/09/27 16:05:47;;;;;;;3.17;1.77;;;;;;;;;;5025066;28;20048;-85
2022/09/27 16:08:19;;;;;;;3.25;1.35;;;;;;;;;;5042382;28;20468;-85
2022/09/27 16:10:51;;;;;;;4.82;1.25;;;;;;;;;;5043263;28;20076;-84
2022/09/27 16:13:18;;;;;;;2.05;1.10;;;;;;;;;;5041639;28;20048;-85
2022/09/27 16:15:47;;;;;;;4.50;1.30;;;;;;;;;;5041478;28;20044;-85
2022/09/27 16:18:13;;;;;;;3.78;1.02;;;;;;;;;;5040799;28;20072;-85
2022/09/27 16:20:42;;;;;;;6.32;1.25;;;;;;;;;;5024921;28;20156;-85
2022/09/27 16:23:10;;;;;;;3.83;1.00;;;;;;;;;;5043732;28;20095;-85
2022/09/27 16:25:43;;;;;;;5.60;1.42;;;;;;;;;;5019704;28;20033;-85
2022/09/27 16:28:10;;;;;;;5.28;1.20;;;;;;;;;;5041132;28;20397;-85
2022/09/27 16:30:37;;;;;;;1.58;0.90;;;;;;;;;;5024810;28;20049;-85
2022/09/27 16:33:10;;;;;;;3.20;1.10;;;;;;;;;;5025286;28;20052;-85
2022/09/27 16:35:40;;;;;;;2.13;1.00;;;;;;;;;;5023857;28;20130;-85
2022/09/27 16:38:31;;;;;;;3.30;1.05;;;;;;;;;;5021528;28;20234;-85